Time;durP1;ratioP1;P1;durP2;ratioP2;P2;SDS_P1;SDS_P2;PMS_P1;PMS_P2;Temp;Humidity;BMP_temperature;BMP_pressure;BME280_temperature;BME280_humidity;BME280_pressure;Samples;Min_cycle;Max_cycle;Signal;HPM_P1;HPM_P2
2021/08/21 00:01:05;;;;;;;8.88;4.85;;;;;;;;;;4992259;28;20485;-52
2021/08/21 00:03:32;;;;;;;11.38;4.63;;;;;;;;;;4999758;28;20050;-51
2021/08/21 00:05:58;;;;;;;9.05;4.97;;;;;;;;;;5013150;28;20034;-54
2021/08/21 00:08:25;;;;;;;7.82;4.53;;;;;;;;;;5001043;28;20048;-55
2021/08/21 00:10:51;;;;;;;12.27;4.75;;;;;;;;;;4994082;28;20057;-54
2021/08/21 00:13:19;;;;;;;10.35;4.93;;;;;;;;;;4998706;28;20045;-55
2021/08/21 00:15:46;;;;;;;10.15;5.60;;;;;;;;;;4994624;28;20046;-56
2021/08/21 00:18:13;;;;;;;8.60;5.20;;;;;;;;;;5019331;28;20061;-56
2021/08/21 00:20:39;;;;;;;9.25;4.95;;;;;;;;;;4995198;28;20041;-56
2021/08/21 00:23:06;;;;;;;9.63;5.30;;;;;;;;;;4998313;28;20139;-55
2021/08/21 00:25:32;;;;;;;10.63;5.53;;;;;;;;;;4991948;28;20038;-54
2021/08/21 00:27:59;;;;;;;11.52;5.97;;;;;;;;;;5018595;28;20054;-57
2021/08/21 00:30:30;;;;;;;10.23;5.10;;;;;;;;;;4996664;28;20068;-55
2021/08/21 00:32:56;;;;;;;12.25;5.15;;;;;;;;;;5000454;28;20030;-54
2021/08/21 00:35:23;;;;;;;8.35;5.18;;;;;;;;;;4996563;28;20077;-55
2021/08/21 00:37:50;;;;;;;8.63;4.70;;;;;;;;;;4986475;28;20143;-53
2021/08/21 00:40:17;;;;;;;9.97;5.30;;;;;;;;;;5000440;28;20118;-55
2021/08/21 00:42:43;;;;;;;9.93;5.25;;;;;;;;;;4993837;28;20135;-56
2021/08/21 00:45:10;;;;;;;17.15;5.45;;;;;;;;;;5019505;28;20049;-56
2021/08/21 00:47:38;;;;;;;11.00;4.53;;;;;;;;;;4995538;28;20135;-55
2021/08/21 00:50:08;;;;;;;12.82;5.47;;;;;;;;;;5000056;28;20068;-55
2021/08/21 00:52:38;;;;;;;12.15;5.07;;;;;;;;;;5012752;28;20062;-52
2021/08/21 00:55:05;;;;;;;9.55;5.07;;;;;;;;;;4999298;28;20062;-55
2021/08/21 00:57:32;;;;;;;8.90;5.15;;;;;;;;;;5013603;28;20050;-53
2021/08/21 00:59:59;;;;;;;12.20;5.53;;;;;;;;;;5001392;28;20073;-55
2021/08/21 01:02:25;;;;;;;11.10;5.20;;;;;;;;;;5010412;28;20041;-56
2021/08/21 01:04:55;;;;;;;10.95;5.07;;;;;;;;;;5000565;28;20062;-57
2021/08/21 01:07:22;;;;;;;9.73;5.20;;;;;;;;;;4995291;28;20030;-54
2021/08/21 01:09:49;;;;;;;11.27;5.68;;;;;;;;;;4989942;28;20053;-55
2021/08/21 01:12:16;;;;;;;9.75;5.35;;;;;;;;;;4997467;28;20042;-56
2021/08/21 01:14:43;;;;;;;10.52;5.35;;;;;;;;;;4998078;28;20041;-56
2021/08/21 01:17:10;;;;;;;9.88;5.53;;;;;;;;;;4993866;28;20042;-53
2021/08/21 01:19:37;;;;;;;10.05;5.15;;;;;;;;;;4999955;28;20049;-55
2021/08/21 01:22:06;;;;;;;11.50;5.72;;;;;;;;;;5000247;28;20041;-53
2021/08/21 01:24:32;;;;;;;10.48;5.88;;;;;;;;;;4996659;28;20038;-55
2021/08/21 01:27:00;;;;;;;14.75;6.20;;;;;;;;;;5001095;28;20050;-54
2021/08/21 01:29:26;;;;;;;10.43;6.00;;;;;;;;;;4995678;28;20054;-53
2021/08/21 01:31:53;;;;;;;10.70;5.82;;;;;;;;;;5016881;28;20042;-51
2021/08/21 01:34:20;;;;;;;10.95;5.88;;;;;;;;;;4994092;28;20044;-52
2021/08/21 01:36:47;;;;;;;14.80;5.72;;;;;;;;;;5000769;28;20042;-52
2021/08/21 01:39:14;;;;;;;14.90;5.70;;;;;;;;;;4995859;28;20050;-55
2021/08/21 01:41:42;;;;;;;12.48;5.65;;;;;;;;;;5000155;28;20041;-55
2021/08/21 01:44:09;;;;;;;14.87;5.73;;;;;;;;;;4995311;28;20100;-56
2021/08/21 01:46:36;;;;;;;11.98;6.30;;;;;;;;;;4998401;28;20294;-55
2021/08/21 01:49:03;;;;;;;13.57;5.70;;;;;;;;;;4995312;28;20046;-56
2021/08/21 01:51:30;;;;;;;11.20;5.18;;;;;;;;;;5000205;28;20038;-55
2021/08/21 01:53:57;;;;;;;10.57;5.45;;;;;;;;;;5012273;28;20025;-55
2021/08/21 01:56:24;;;;;;;13.27;5.68;;;;;;;;;;4995977;28;20049;-53
2021/08/21 01:58:51;;;;;;;16.05;6.25;;;;;;;;;;4994069;28;20061;-55
2021/08/21 02:01:19;;;;;;;18.85;6.35;;;;;;;;;;4992874;28;20045;-53
2021/08/21 02:03:46;;;;;;;10.77;5.80;;;;;;;;;;5000334;28;20124;-55
2021/08/21 02:06:13;;;;;;;11.57;5.55;;;;;;;;;;4983819;28;20050;-55
2021/08/21 02:08:39;;;;;;;11.43;6.13;;;;;;;;;;5001661;28;20124;-56
2021/08/21 02:11:05;;;;;;;11.50;6.20;;;;;;;;;;4987981;28;20030;-56
2021/08/21 02:13:32;;;;;;;14.27;6.85;;;;;;;;;;4984913;28;20046;-55
2021/08/21 02:15:58;;;;;;;21.30;5.80;;;;;;;;;;4983584;28;20118;-55
2021/08/21 02:18:26;;;;;;;16.00;7.30;;;;;;;;;;4985202;28;20034;-54
2021/08/21 02:20:53;;;;;;;12.20;6.45;;;;;;;;;;4981402;28;20112;-54
2021/08/21 02:23:19;;;;;;;12.57;7.18;;;;;;;;;;4983902;28;20107;-54
2021/08/21 02:25:46;;;;;;;15.70;7.22;;;;;;;;;;5009210;28;20053;-54
2021/08/21 02:28:18;;;;;;;14.90;7.03;;;;;;;;;;5002713;28;20057;-54
2021/08/21 02:30:44;;;;;;;16.55;7.45;;;;;;;;;;4993546;28;20034;-55
2021/08/21 02:33:11;;;;;;;15.23;7.30;;;;;;;;;;4983564;28;20046;-55
2021/08/21 02:35:39;;;;;;;12.48;7.20;;;;;;;;;;4998147;28;20117;-53
2021/08/21 02:38:05;;;;;;;14.32;7.53;;;;;;;;;;4982210;28;20069;-52
2021/08/21 02:40:32;;;;;;;15.07;7.35;;;;;;;;;;4983071;28;20068;-55
2021/08/21 02:42:59;;;;;;;14.90;7.70;;;;;;;;;;5020227;28;20049;-54
2021/08/21 02:45:25;;;;;;;13.82;7.00;;;;;;;;;;5017648;28;20045;-53
2021/08/21 02:47:52;;;;;;;18.15;7.70;;;;;;;;;;4972042;28;20050;-53
2021/08/21 02:50:18;;;;;;;15.05;8.07;;;;;;;;;;4999848;28;20046;-54
2021/08/21 02:52:46;;;;;;;13.98;7.60;;;;;;;;;;4998646;28;20049;-54
2021/08/21 02:55:12;;;;;;;15.70;7.43;;;;;;;;;;5008489;28;20132;-55
2021/08/21 02:57:39;;;;;;;14.07;7.50;;;;;;;;;;4980042;28;20053;-55
2021/08/21 03:00:06;;;;;;;20.40;8.50;;;;;;;;;;4984578;28;20038;-50
2021/08/21 03:02:33;;;;;;;14.88;7.38;;;;;;;;;;4990793;28;20042;-54
2021/08/21 03:04:59;;;;;;;12.93;7.28;;;;;;;;;;5003869;28;20026;-55
2021/08/21 03:07:26;;;;;;;15.68;8.18;;;;;;;;;;4990435;28;20053;-51
2021/08/21 03:09:54;;;;;;;16.17;8.05;;;;;;;;;;5001937;28;20045;-50
2021/08/21 03:12:20;;;;;;;13.13;7.65;;;;;;;;;;4987362;28;20132;-49
2021/08/21 03:14:47;;;;;;;17.67;8.18;;;;;;;;;;5004963;28;20038;-54
2021/08/21 03:17:13;;;;;;;16.63;7.60;;;;;;;;;;4997266;28;20035;-55
2021/08/21 03:19:42;;;;;;;14.07;7.72;;;;;;;;;;4987809;28;20034;-55
2021/08/21 03:22:09;;;;;;;19.52;8.60;;;;;;;;;;4985630;28;20042;-53
2021/08/21 03:24:35;;;;;;;18.65;7.75;;;;;;;;;;5006529;28;20044;-55
2021/08/21 03:27:05;;;;;;;18.75;8.20;;;;;;;;;;5022005;28;20048;-54
2021/08/21 03:29:32;;;;;;;16.67;8.40;;;;;;;;;;4987291;28;20050;-53
2021/08/21 03:31:59;;;;;;;15.95;8.23;;;;;;;;;;5006324;28;20042;-55
2021/08/21 03:34:25;;;;;;;18.13;8.77;;;;;;;;;;4984663;28;20046;-55
2021/08/21 03:36:51;;;;;;;13.65;8.32;;;;;;;;;;4987175;28;20049;-54
2021/08/21 03:39:18;;;;;;;15.13;8.27;;;;;;;;;;4994996;28;20050;-55
2021/08/21 03:41:45;;;;;;;16.33;8.80;;;;;;;;;;5002012;28;20030;-55
2021/08/21 03:44:12;;;;;;;21.20;8.93;;;;;;;;;;5000110;28;20074;-55
2021/08/21 03:46:39;;;;;;;17.43;9.10;;;;;;;;;;4986491;28;20038;-55
2021/08/21 03:49:06;;;;;;;17.05;9.00;;;;;;;;;;4993719;28;20372;-57
2021/08/21 03:51:34;;;;;;;19.60;9.30;;;;;;;;;;5024112;28;20112;-56
2021/08/21 03:54:01;;;;;;;17.95;9.38;;;;;;;;;;5000202;28;20041;-56
2021/08/21 03:56:27;;;;;;;20.98;9.27;;;;;;;;;;5003756;28;20054;-54
2021/08/21 03:58:54;;;;;;;18.90;9.65;;;;;;;;;;4982098;28;20042;-54
2021/08/21 04:01:22;;;;;;;19.25;9.95;;;;;;;;;;4987022;28;20026;-54
2021/08/21 04:03:48;;;;;;;15.00;8.52;;;;;;;;;;4982639;28;20048;-54
2021/08/21 04:06:15;;;;;;;16.60;9.00;;;;;;;;;;4981662;28;20050;-55
2021/08/21 04:08:41;;;;;;;17.08;8.80;;;;;;;;;;4983033;28;20050;-56
2021/08/21 04:11:08;;;;;;;18.38;9.23;;;;;;;;;;4982817;28;20047;-57
2021/08/21 04:13:34;;;;;;;18.45;9.27;;;;;;;;;;4983312;28;20099;-55
2021/08/21 04:16:00;;;;;;;17.90;9.07;;;;;;;;;;4980197;28;20143;-55
2021/08/21 04:18:28;;;;;;;19.85;9.35;;;;;;;;;;4982729;28;20109;-56
2021/08/21 04:20:55;;;;;;;18.38;9.07;;;;;;;;;;4980619;28;20039;-55
2021/08/21 04:23:21;;;;;;;17.20;8.32;;;;;;;;;;4983282;28;20058;-56
2021/08/21 04:25:48;;;;;;;18.70;9.02;;;;;;;;;;4979217;28;20136;-56
2021/08/21 04:28:14;;;;;;;19.10;9.77;;;;;;;;;;4983319;28;20039;-56
2021/08/21 04:30:41;;;;;;;16.08;9.20;;;;;;;;;;4978924;28;20101;-55
2021/08/21 04:33:08;;;;;;;19.38;9.27;;;;;;;;;;4982755;28;20042;-54
2021/08/21 04:35:36;;;;;;;16.95;8.95;;;;;;;;;;4979022;28;20039;-54
2021/08/21 04:38:02;;;;;;;21.77;9.17;;;;;;;;;;4982379;28;20042;-55
2021/08/21 04:40:29;;;;;;;17.23;9.20;;;;;;;;;;4978244;28;20042;-50
2021/08/21 04:42:58;;;;;;;17.00;8.82;;;;;;;;;;4981490;28;20050;-56
2021/08/21 04:45:25;;;;;;;15.32;8.50;;;;;;;;;;4982144;28;20082;-50
2021/08/21 04:47:51;;;;;;;15.98;8.90;;;;;;;;;;5002126;28;20149;-55
2021/08/21 04:50:17;;;;;;;15.88;8.43;;;;;;;;;;5000218;28;20042;-54
2021/08/21 04:52:45;;;;;;;16.33;8.30;;;;;;;;;;4981610;28;20042;-56
2021/08/21 04:55:12;;;;;;;16.90;8.40;;;;;;;;;;4981626;28;20053;-57
2021/08/21 04:57:38;;;;;;;19.33;9.30;;;;;;;;;;4980321;28;20280;-55
2021/08/21 05:00:06;;;;;;;16.63;8.80;;;;;;;;;;4982733;28;20035;-56
2021/08/21 05:02:32;;;;;;;17.55;8.43;;;;;;;;;;4993329;28;20053;-56
2021/08/21 05:04:59;;;;;;;17.65;8.35;;;;;;;;;;5004980;28;20127;-56
2021/08/21 05:07:25;;;;;;;18.23;9.00;;;;;;;;;;4987484;28;20042;-57
2021/08/21 05:09:53;;;;;;;17.30;9.15;;;;;;;;;;4985953;28;20034;-54
2021/08/21 05:12:19;;;;;;;17.73;8.87;;;;;;;;;;4982060;28;20030;-53
2021/08/21 05:14:46;;;;;;;19.65;8.40;;;;;;;;;;4985863;28;20042;-55
2021/08/21 05:17:12;;;;;;;17.23;8.95;;;;;;;;;;4983129;28;20042;-57
2021/08/21 05:19:41;;;;;;;19.42;8.70;;;;;;;;;;5001902;28;20038;-56
2021/08/21 05:22:21;;;;;;;;;;;;;;;;;;4985483;28;20046;-54
2021/08/21 05:24:48;;;;;;;17.90;8.88;;;;;;;;;;5000422;28;19922;-56
2021/08/21 05:27:16;;;;;;;20.80;9.52;;;;;;;;;;4994277;28;20042;-55
2021/08/21 05:29:42;;;;;;;19.17;8.95;;;;;;;;;;4997611;28;20044;-55
2021/08/21 05:32:09;;;;;;;17.27;9.18;;;;;;;;;;4993560;28;20527;-54
2021/08/21 05:34:35;;;;;;;17.55;9.75;;;;;;;;;;4998383;28;20061;-54
2021/08/21 05:37:02;;;;;;;16.50;9.07;;;;;;;;;;4996872;28;20030;-53
2021/08/21 05:39:28;;;;;;;17.15;9.52;;;;;;;;;;4997224;28;20114;-55
2021/08/21 05:41:55;;;;;;;16.83;8.77;;;;;;;;;;4996759;28;20048;-56
2021/08/21 05:44:25;;;;;;;17.60;9.35;;;;;;;;;;4993846;28;20120;-56
2021/08/21 05:46:51;;;;;;;20.70;9.45;;;;;;;;;;5000921;28;20049;-56
2021/08/21 05:49:18;;;;;;;19.98;9.20;;;;;;;;;;4994652;28;20046;-56
2021/08/21 05:51:44;;;;;;;15.88;8.52;;;;;;;;;;4998514;28;20042;-55
2021/08/21 05:54:11;;;;;;;20.38;9.90;;;;;;;;;;4994983;28;20042;-54
2021/08/21 05:56:37;;;;;;;20.77;9.80;;;;;;;;;;4981455;28;20064;-55
2021/08/21 05:59:04;;;;;;;20.88;9.45;;;;;;;;;;4996324;28;20049;-55
2021/08/21 06:01:32;;;;;;;18.50;9.30;;;;;;;;;;4997734;28;20045;-52
2021/08/21 06:03:58;;;;;;;17.83;9.70;;;;;;;;;;4994437;28;20112;-56
2021/08/21 06:06:24;;;;;;;20.27;9.98;;;;;;;;;;4994844;28;20119;-54
2021/08/21 06:08:51;;;;;;;18.40;8.88;;;;;;;;;;4997071;28;20044;-55
2021/08/21 06:11:17;;;;;;;21.33;9.65;;;;;;;;;;5017549;28;20053;-54
2021/08/21 06:13:44;;;;;;;20.70;9.88;;;;;;;;;;4994245;28;20099;-56
2021/08/21 06:16:10;;;;;;;21.40;9.85;;;;;;;;;;5018116;28;20161;-51
2021/08/21 06:18:38;;;;;;;18.52;8.98;;;;;;;;;;5014082;28;20046;-49
2021/08/21 06:21:05;;;;;;;16.23;9.52;;;;;;;;;;4994535;28;20042;-54
2021/08/21 06:23:31;;;;;;;20.00;9.82;;;;;;;;;;4996871;28;20034;-56
2021/08/21 06:25:58;;;;;;;18.98;10.07;;;;;;;;;;4994474;28;20049;-51
2021/08/21 06:28:24;;;;;;;21.40;10.40;;;;;;;;;;4997118;28;20037;-55
2021/08/21 06:30:51;;;;;;;24.70;10.15;;;;;;;;;;4992065;28;20069;-57
2021/08/21 06:33:17;;;;;;;22.15;10.13;;;;;;;;;;5002813;28;20139;-57
2021/08/21 06:35:45;;;;;;;20.52;10.18;;;;;;;;;;4993205;28;20053;-54
2021/08/21 06:38:12;;;;;;;20.87;10.30;;;;;;;;;;4996633;28;20061;-57
2021/08/21 06:40:38;;;;;;;19.95;10.35;;;;;;;;;;4990869;28;20068;-56
2021/08/21 06:43:05;;;;;;;26.73;12.30;;;;;;;;;;4995439;28;20050;-56
2021/08/21 06:45:31;;;;;;;23.25;11.73;;;;;;;;;;4995631;28;20058;-56
2021/08/21 06:47:57;;;;;;;25.77;12.48;;;;;;;;;;5002172;28;20111;-57
2021/08/21 06:50:24;;;;;;;23.80;12.45;;;;;;;;;;5011498;28;20038;-57
2021/08/21 06:52:52;;;;;;;30.35;12.82;;;;;;;;;;4998929;28;20041;-55
2021/08/21 06:55:20;;;;;;;27.33;13.13;;;;;;;;;;5011092;28;20057;-56
2021/08/21 06:57:46;;;;;;;26.90;12.70;;;;;;;;;;4999879;28;20115;-57
2021/08/21 07:00:13;;;;;;;26.45;13.27;;;;;;;;;;5001894;28;20056;-56
2021/08/21 07:02:40;;;;;;;26.17;12.77;;;;;;;;;;4992726;28;20099;-56
2021/08/21 07:05:07;;;;;;;31.27;13.65;;;;;;;;;;5002557;28;20057;-56
2021/08/21 07:07:35;;;;;;;24.52;11.95;;;;;;;;;;4995878;28;20052;-55
2021/08/21 07:10:03;;;;;;;25.83;12.18;;;;;;;;;;4997217;28;20038;-56
2021/08/21 07:12:29;;;;;;;29.38;12.48;;;;;;;;;;4995073;28;20061;-56
2021/08/21 07:14:56;;;;;;;27.80;12.75;;;;;;;;;;5001484;28;20068;-57
2021/08/21 07:17:22;;;;;;;30.73;13.10;;;;;;;;;;5015591;28;20042;-56
2021/08/21 07:19:49;;;;;;;26.30;12.57;;;;;;;;;;5015972;28;20060;-56
2021/08/21 07:22:15;;;;;;;27.20;12.98;;;;;;;;;;4992272;28;20064;-56
2021/08/21 07:24:42;;;;;;;25.65;11.70;;;;;;;;;;5016547;28;20041;-57
2021/08/21 07:27:10;;;;;;;24.83;11.65;;;;;;;;;;4993917;28;20037;-56
2021/08/21 07:29:37;;;;;;;22.55;9.95;;;;;;;;;;5004551;28;20045;-56
2021/08/21 07:32:03;;;;;;;27.33;11.63;;;;;;;;;;5015732;28;20149;-56
2021/08/21 07:34:30;;;;;;;23.73;11.73;;;;;;;;;;4986182;28;20097;-56
2021/08/21 07:36:57;;;;;;;24.73;11.23;;;;;;;;;;5001398;28;20120;-57
2021/08/21 07:39:23;;;;;;;21.77;10.45;;;;;;;;;;4968985;28;20044;-57
2021/08/21 07:41:50;;;;;;;20.23;9.65;;;;;;;;;;4986001;28;20061;-56
2021/08/21 07:44:18;;;;;;;22.70;11.07;;;;;;;;;;4982914;28;20048;-57
2021/08/21 07:46:44;;;;;;;22.55;9.65;;;;;;;;;;5004279;28;20381;-57
2021/08/21 07:49:10;;;;;;;20.65;9.82;;;;;;;;;;4982727;28;20046;-55
2021/08/21 07:51:37;;;;;;;21.60;10.38;;;;;;;;;;4984807;28;20038;-54
2021/08/21 07:54:04;;;;;;;23.30;10.75;;;;;;;;;;4982346;28;20045;-56
2021/08/21 07:56:31;;;;;;;21.00;10.75;;;;;;;;;;5003492;28;20046;-55
2021/08/21 07:58:57;;;;;;;20.55;10.35;;;;;;;;;;4994410;28;20041;-56
2021/08/21 08:01:25;;;;;;;25.25;11.07;;;;;;;;;;5003880;28;20065;-57
2021/08/21 08:03:52;;;;;;;21.27;9.73;;;;;;;;;;4998661;28;20038;-55
2021/08/21 08:06:18;;;;;;;24.92;10.70;;;;;;;;;;5005000;28;20046;-57
2021/08/21 08:08:44;;;;;;;21.30;10.43;;;;;;;;;;4994562;28;20038;-56
2021/08/21 08:11:11;;;;;;;23.83;10.80;;;;;;;;;;4984359;28;20057;-52
2021/08/21 08:13:37;;;;;;;21.77;10.32;;;;;;;;;;4982388;28;20042;-56
2021/08/21 08:16:04;;;;;;;23.27;10.73;;;;;;;;;;5000922;28;20042;-56
2021/08/21 08:18:32;;;;;;;26.92;11.70;;;;;;;;;;4981734;28;20112;-56
2021/08/21 08:20:59;;;;;;;25.17;10.95;;;;;;;;;;4984447;28;20112;-56
2021/08/21 08:23:25;;;;;;;22.23;11.30;;;;;;;;;;4986213;28;20037;-54
2021/08/21 08:25:51;;;;;;;22.85;10.75;;;;;;;;;;4997691;28;20136;-57
2021/08/21 08:28:18;;;;;;;21.08;11.07;;;;;;;;;;5000664;28;20069;-53
2021/08/21 08:30:44;;;;;;;22.42;11.05;;;;;;;;;;4984944;28;20312;-53
2021/08/21 08:33:11;;;;;;;21.80;10.73;;;;;;;;;;5002417;28;20042;-54
2021/08/21 08:35:39;;;;;;;29.70;11.05;;;;;;;;;;4983197;28;20038;-53
2021/08/21 08:38:05;;;;;;;26.40;11.10;;;;;;;;;;4985699;28;20107;-55
2021/08/21 08:40:33;;;;;;;22.15;10.73;;;;;;;;;;4997823;28;20291;-55
2021/08/21 08:43:01;;;;;;;24.88;11.48;;;;;;;;;;4981982;28;20069;-51
2021/08/21 08:45:28;;;;;;;22.08;10.43;;;;;;;;;;4980717;28;20128;-56
2021/08/21 08:47:58;;;;;;;20.42;10.43;;;;;;;;;;4979933;28;20124;-58
2021/08/21 08:50:26;;;;;;;25.30;11.57;;;;;;;;;;4981088;28;20038;-58
2021/08/21 08:52:54;;;;;;;23.75;11.02;;;;;;;;;;4984822;28;20468;-56
2021/08/21 08:55:22;;;;;;;23.98;10.95;;;;;;;;;;4982387;28;20027;-57
2021/08/21 08:57:48;;;;;;;22.13;10.70;;;;;;;;;;4984244;28;20046;-55
2021/08/21 09:00:16;;;;;;;24.38;10.77;;;;;;;;;;4984145;28;20058;-56
2021/08/21 09:02:44;;;;;;;24.63;11.02;;;;;;;;;;5003917;28;20050;-58
2021/08/21 09:05:12;;;;;;;24.58;10.50;;;;;;;;;;5003669;28;20049;-57
2021/08/21 09:07:40;;;;;;;21.20;9.85;;;;;;;;;;4985221;28;20034;-55
2021/08/21 09:10:15;;;;;;;23.27;10.55;;;;;;;;;;4985625;28;20038;-52
2021/08/21 09:12:42;;;;;;;22.52;10.95;;;;;;;;;;5018492;28;20045;-57
2021/08/21 09:15:24;;;;;;;25.23;10.68;;;;;;;;;;5022542;28;20053;-54
2021/08/21 09:17:59;;;;;;;19.90;10.13;;;;;;;;;;5001322;28;20045;-55
2021/08/21 09:20:25;;;;;;;19.58;10.10;;;;;;;;;;5004234;28;20049;-55
2021/08/21 09:22:52;;;;;;;25.08;10.50;;;;;;;;;;4997586;28;20064;-56
2021/08/21 09:25:29;;;;;;;19.10;9.65;;;;;;;;;;5001725;28;20046;-57
2021/08/21 09:27:55;;;;;;;19.88;8.63;;;;;;;;;;5001014;28;20046;-55
2021/08/21 09:30:22;;;;;;;22.50;10.23;;;;;;;;;;5004762;28;20053;-56
2021/08/21 09:32:48;;;;;;;21.38;10.70;;;;;;;;;;4989004;28;20054;-55
2021/08/21 09:35:15;;;;;;;19.90;9.88;;;;;;;;;;4988970;28;20042;-55
2021/08/21 09:37:48;;;;;;;22.52;8.52;;;;;;;;;;5016942;28;20061;-57
2021/08/21 09:40:28;;;;;;;23.38;9.77;;;;;;;;;;5005510;28;20042;-52
2021/08/21 09:42:56;;;;;;;19.48;9.10;;;;;;;;;;4988723;28;20348;-55
2021/08/21 09:45:22;;;;;;;16.17;8.40;;;;;;;;;;5003623;28;20034;-57
2021/08/21 09:47:49;;;;;;;21.52;10.20;;;;;;;;;;4982313;28;20038;-54
2021/08/21 09:50:17;;;;;;;22.92;10.32;;;;;;;;;;4984648;28;20038;-56
2021/08/21 09:52:44;;;;;;;14.88;7.78;;;;;;;;;;4984886;28;20049;-55
2021/08/21 09:55:15;;;;;;;17.20;8.77;;;;;;;;;;5000113;28;20038;-57
2021/08/21 09:57:41;;;;;;;19.38;9.07;;;;;;;;;;4997553;28;20077;-56
2021/08/21 10:00:10;;;;;;;19.70;8.38;;;;;;;;;;4990585;28;20042;-57
2021/08/21 10:02:37;;;;;;;17.15;8.30;;;;;;;;;;4983045;28;20145;-54
2021/08/21 10:05:04;;;;;;;19.88;8.93;;;;;;;;;;5004432;28;20045;-58
2021/08/21 10:07:34;;;;;;;18.92;8.85;;;;;;;;;;5004722;28;20070;-55
2021/08/21 10:10:02;;;;;;;22.20;9.88;;;;;;;;;;4993298;28;20118;-57
2021/08/21 10:12:29;;;;;;;20.97;10.57;;;;;;;;;;4982939;28;20046;-58
2021/08/21 10:14:56;;;;;;;20.35;9.38;;;;;;;;;;4993976;28;20131;-55
2021/08/21 10:17:24;;;;;;;18.40;9.13;;;;;;;;;;5001571;28;20046;-55
2021/08/21 10:19:50;;;;;;;25.70;10.68;;;;;;;;;;4998962;28;20052;-56
2021/08/21 10:22:19;;;;;;;19.60;9.82;;;;;;;;;;4986567;28;20042;-56
2021/08/21 10:24:48;;;;;;;19.27;10.27;;;;;;;;;;4982417;28;20116;-55
2021/08/21 10:27:16;;;;;;;19.45;9.70;;;;;;;;;;5005191;28;20049;-54
2021/08/21 10:30:00;;;;;;;19.05;8.98;;;;;;;;;;4994041;28;20049;-56
2021/08/21 10:32:31;;;;;;;17.80;8.23;;;;;;;;;;5006433;28;20038;-54
2021/08/21 10:34:58;;;;;;;17.58;7.80;;;;;;;;;;5002329;28;20049;-52
2021/08/21 10:37:32;;;;;;;17.75;8.95;;;;;;;;;;5008247;28;20034;-57
2021/08/21 10:39:59;;;;;;;16.67;8.45;;;;;;;;;;5002495;28;20053;-56
2021/08/21 10:42:26;;;;;;;21.20;8.45;;;;;;;;;;5006406;28;20037;-54
2021/08/21 10:44:53;;;;;;;15.00;7.10;;;;;;;;;;5000523;28;20049;-55
2021/08/21 10:47:38;;;;;;;16.52;7.85;;;;;;;;;;5004133;28;20124;-55
2021/08/21 10:50:23;;;;;;;16.85;8.48;;;;;;;;;;5001121;28;20054;-55
2021/08/21 10:52:53;;;;;;;16.75;8.25;;;;;;;;;;4986742;28;20038;-54
2021/08/21 10:55:24;;;;;;;15.75;7.00;;;;;;;;;;4987301;28;20452;-59
2021/08/21 10:57:58;;;;;;;13.60;6.20;;;;;;;;;;5004141;28;20046;-55
2021/08/21 11:00:52;;;;;;;14.20;6.70;;;;;;;;;;4984270;28;20045;-53
2021/08/21 11:03:40;;;;;;;12.65;5.82;;;;;;;;;;4962272;28;20054;-57
2021/08/21 11:06:07;;;;;;;11.23;4.72;;;;;;;;;;5011779;28;20046;-54
2021/08/21 11:08:53;;;;;;;11.85;5.03;;;;;;;;;;5006260;28;20042;-54
2021/08/21 11:11:27;;;;;;;13.20;4.25;;;;;;;;;;5018350;28;20053;-54
2021/08/21 11:13:58;;;;;;;7.82;3.70;;;;;;;;;;5023085;28;20034;-54
2021/08/21 11:16:44;;;;;;;8.07;3.85;;;;;;;;;;4999455;28;20056;-54
2021/08/21 11:19:12;;;;;;;9.52;3.10;;;;;;;;;;5003251;28;20185;-58
2021/08/21 11:21:40;;;;;;;9.18;3.42;;;;;;;;;;4991573;28;20046;-55
2021/08/21 11:24:21;;;;;;;6.43;2.90;;;;;;;;;;4985702;28;20038;-56
2021/08/21 11:26:47;;;;;;;6.13;2.58;;;;;;;;;;4984338;28;20042;-56
2021/08/21 11:29:15;;;;;;;9.13;2.85;;;;;;;;;;5005154;28;20057;-56
2021/08/21 11:31:52;;;;;;;5.55;2.35;;;;;;;;;;5007631;28;20078;-55
2021/08/21 11:34:21;;;;;;;9.23;2.65;;;;;;;;;;5005139;28;20117;-55
2021/08/21 11:36:48;;;;;;;8.13;2.88;;;;;;;;;;4986613;28;20057;-54
2021/08/21 11:39:14;;;;;;;7.60;2.95;;;;;;;;;;4986542;28;20046;-56
2021/08/21 11:41:41;;;;;;;8.10;2.60;;;;;;;;;;5016929;28;20061;-57
2021/08/21 11:44:07;;;;;;;6.15;2.67;;;;;;;;;;5005879;28;20037;-54
2021/08/21 11:46:34;;;;;;;6.63;2.88;;;;;;;;;;5000371;28;20041;-55
2021/08/21 11:49:06;;;;;;;6.20;2.60;;;;;;;;;;5006583;28;20102;-55
2021/08/21 11:51:38;;;;;;;4.15;2.30;;;;;;;;;;5003801;28;20052;-57
2021/08/21 11:54:05;;;;;;;7.38;2.65;;;;;;;;;;5003898;28;20050;-55
2021/08/21 11:56:33;;;;;;;9.38;2.60;;;;;;;;;;5022198;28;20037;-58
2021/08/21 11:59:08;;;;;;;9.43;2.67;;;;;;;;;;4986121;28;20050;-57
2021/08/21 12:01:37;;;;;;;6.57;2.30;;;;;;;;;;4984932;28;20356;-54
2021/08/21 12:04:22;;;;;;;6.85;2.42;;;;;;;;;;4996044;28;20031;-56
2021/08/21 12:06:50;;;;;;;6.22;2.45;;;;;;;;;;5002666;28;20054;-56
2021/08/21 12:09:18;;;;;;;7.57;2.67;;;;;;;;;;4987564;28;20050;-57
2021/08/21 12:11:46;;;;;;;9.10;2.53;;;;;;;;;;5003798;28;20049;-54
2021/08/21 12:14:12;;;;;;;9.35;2.70;;;;;;;;;;4982419;28;20048;-57
2021/08/21 12:16:40;;;;;;;5.22;2.13;;;;;;;;;;4985994;28;20058;-60
2021/08/21 12:26:54;;;;;;;7.30;3.72;;;;;;;;;;5316602;23;20353;-56
2021/08/21 12:29:21;;;;;;;6.88;3.38;;;;;;;;;;4962296;28;20049;-57
2021/08/21 12:31:50;;;;;;;7.75;2.95;;;;;;;;;;4984741;28;20038;-57
2021/08/21 12:34:16;;;;;;;;;;;;;;;;;;4963546;28;20120;-57
2021/08/21 12:36:43;;;;;;;7.47;3.15;;;;;;;;;;4966291;28;19922;-57
2021/08/21 12:39:11;;;;;;;11.93;3.33;;;;;;;;;;4967594;28;20053;-57
2021/08/21 12:41:47;;;;;;;9.67;2.57;;;;;;;;;;4953950;28;20047;-57
2021/08/21 12:44:16;;;;;;;10.90;3.40;;;;;;;;;;4967041;28;20291;-58
2021/08/21 12:46:49;;;;;;;7.07;3.10;;;;;;;;;;4964708;28;20046;-57
2021/08/21 12:49:15;;;;;;;6.78;3.10;;;;;;;;;;4968867;28;20050;-60
2021/08/21 12:51:43;;;;;;;6.30;3.20;;;;;;;;;;4963064;28;20105;-60
2021/08/21 12:54:10;;;;;;;8.48;3.40;;;;;;;;;;4963115;28;20057;-60
2021/08/21 12:56:36;;;;;;;7.32;3.05;;;;;;;;;;4976208;28;20034;-60
2021/08/21 12:59:06;;;;;;;9.95;2.88;;;;;;;;;;4967112;28;20030;-60
2021/08/21 13:01:35;;;;;;;7.53;2.80;;;;;;;;;;4980409;28;20117;-60
2021/08/21 13:04:06;;;;;;;6.22;2.50;;;;;;;;;;4982199;28;20045;-60
2021/08/21 13:06:32;;;;;;;13.82;3.35;;;;;;;;;;4952475;28;20129;-65
2021/08/21 13:08:59;;;;;;;6.97;3.53;;;;;;;;;;4948721;28;20035;-60
2021/08/21 13:11:25;;;;;;;8.20;3.80;;;;;;;;;;4950502;28;20050;-60
2021/08/21 13:13:52;;;;;;;8.77;3.00;;;;;;;;;;4946863;28;20044;-60
2021/08/21 13:16:18;;;;;;;11.65;3.55;;;;;;;;;;4961527;28;20039;-60
2021/08/21 13:18:46;;;;;;;11.95;3.03;;;;;;;;;;4952148;28;20031;-54
2021/08/21 13:21:13;;;;;;;6.60;3.20;;;;;;;;;;4960102;28;20042;-57
2021/08/21 13:23:39;;;;;;;9.52;4.15;;;;;;;;;;4947553;28;20043;-58
2021/08/21 13:26:06;;;;;;;7.22;3.13;;;;;;;;;;4945805;28;20070;-58
2021/08/21 13:28:33;;;;;;;9.20;3.55;;;;;;;;;;4956149;28;20159;-56
2021/08/21 13:31:00;;;;;;;8.63;3.70;;;;;;;;;;4982408;28;20050;-58
2021/08/21 13:33:26;;;;;;;7.30;3.10;;;;;;;;;;4964738;28;20043;-55
2021/08/21 13:35:54;;;;;;;9.80;3.53;;;;;;;;;;4967415;28;20186;-59
2021/08/21 13:38:21;;;;;;;8.02;3.30;;;;;;;;;;4947907;28;20114;-59
2021/08/21 13:40:47;;;;;;;7.50;3.53;;;;;;;;;;4964919;28;20039;-60
2021/08/21 13:43:14;;;;;;;8.23;3.47;;;;;;;;;;4957227;28;20050;-60
2021/08/21 13:45:40;;;;;;;5.72;2.97;;;;;;;;;;4987589;28;20042;-60
2021/08/21 13:48:07;;;;;;;7.60;3.33;;;;;;;;;;4973438;28;20051;-58
2021/08/21 13:50:33;;;;;;;6.82;2.80;;;;;;;;;;4948282;28;20046;-60
2021/08/21 13:53:01;;;;;;;8.52;3.53;;;;;;;;;;4961858;28;20050;-58
2021/08/21 13:55:28;;;;;;;8.65;3.28;;;;;;;;;;4959807;28;20126;-60
2021/08/21 13:57:54;;;;;;;9.23;2.75;;;;;;;;;;4959467;28;20027;-56
2021/08/21 14:00:21;;;;;;;9.02;2.45;;;;;;;;;;4947150;28;20035;-57
2021/08/21 14:02:47;;;;;;;6.68;2.83;;;;;;;;;;4946709;28;20133;-57
2021/08/21 14:05:14;;;;;;;8.32;2.80;;;;;;;;;;4984516;28;20050;-57
2021/08/21 14:07:41;;;;;;;6.78;3.03;;;;;;;;;;4981225;28;20031;-58
2021/08/21 14:10:10;;;;;;;7.20;2.83;;;;;;;;;;4950032;28;20046;-58
2021/08/21 14:12:36;;;;;;;8.38;3.13;;;;;;;;;;4966859;28;20054;-57
2021/08/21 14:15:03;;;;;;;5.95;2.30;;;;;;;;;;4964016;28;20050;-55
2021/08/21 14:17:29;;;;;;;6.20;2.60;;;;;;;;;;4966321;28;20043;-56
2021/08/21 14:19:56;;;;;;;4.60;1.80;;;;;;;;;;4947198;28;20039;-55
2021/08/21 14:22:22;;;;;;;5.55;1.95;;;;;;;;;;4965032;28;20046;-56
2021/08/21 14:24:49;;;;;;;5.68;2.30;;;;;;;;;;4973600;28;20046;-56
2021/08/21 14:27:16;;;;;;;9.68;2.33;;;;;;;;;;4966404;28;20049;-58
2021/08/21 14:29:45;;;;;;;5.20;2.08;;;;;;;;;;4963732;28;20058;-54
2021/08/21 14:32:11;;;;;;;4.75;2.10;;;;;;;;;;4963441;28;20079;-56
2021/08/21 14:34:38;;;;;;;6.03;2.15;;;;;;;;;;4956339;28;20057;-59
2021/08/21 14:37:04;;;;;;;5.07;2.30;;;;;;;;;;4984029;28;20035;-58
2021/08/21 14:39:31;;;;;;;6.85;2.35;;;;;;;;;;4961061;28;20026;-58
2021/08/21 14:41:57;;;;;;;5.60;2.72;;;;;;;;;;4984029;28;20054;-56